sensor_id;sensor_type;location;lat;lon;timestamp;P1;durP1;ratioP1;P2;durP2;ratioP2
611;SDS011;293;53.888;11.464;2022-12-20T00:01:40;27.42;;;20.33;;
611;SDS011;293;53.888;11.464;2022-12-20T00:04:07;28.88;;;21.65;;
611;SDS011;293;53.888;11.464;2022-12-20T00:06:38;27.20;;;18.85;;
611;SDS011;293;53.888;11.464;2022-12-20T00:09:06;28.98;;;19.50;;
611;SDS011;293;53.888;11.464;2022-12-20T00:11:34;23.60;;;17.55;;
611;SDS011;293;53.888;11.464;2022-12-20T00:14:03;27.95;;;19.13;;
611;SDS011;293;53.888;11.464;2022-12-20T00:16:30;25.33;;;19.80;;
611;SDS011;293;53.888;11.464;2022-12-20T00:18:57;30.60;;;20.50;;
611;SDS011;293;53.888;11.464;2022-12-20T00:21:26;28.42;;;19.27;;
611;SDS011;293;53.888;11.464;2022-12-20T00:23:55;30.50;;;20.80;;
611;SDS011;293;53.888;11.464;2022-12-20T00:26:23;23.50;;;18.10;;
611;SDS011;293;53.888;11.464;2022-12-20T00:28:51;26.52;;;17.92;;
611;SDS011;293;53.888;11.464;2022-12-20T00:31:19;25.50;;;18.10;;
611;SDS011;293;53.888;11.464;2022-12-20T00:33:48;30.10;;;18.20;;
611;SDS011;293;53.888;11.464;2022-12-20T00:36:16;28.52;;;20.38;;
611;SDS011;293;53.888;11.464;2022-12-20T00:38:44;29.75;;;19.17;;
611;SDS011;293;53.888;11.464;2022-12-20T00:41:13;30.30;;;19.10;;
611;SDS011;293;53.888;11.464;2022-12-20T00:43:42;24.50;;;18.45;;
611;SDS011;293;53.888;11.464;2022-12-20T00:46:10;23.80;;;18.10;;
611;SDS011;293;53.888;11.464;2022-12-20T00:48:38;24.50;;;19.20;;
611;SDS011;293;53.888;11.464;2022-12-20T00:51:06;29.83;;;18.55;;
611;SDS011;293;53.888;11.464;2022-12-20T00:53:34;29.95;;;18.83;;
611;SDS011;293;53.888;11.464;2022-12-20T00:56:02;24.75;;;16.60;;
611;SDS011;293;53.888;11.464;2022-12-20T00:58:32;24.13;;;17.17;;
611;SDS011;293;53.888;11.464;2022-12-20T01:00:59;27.95;;;18.63;;
611;SDS011;293;53.888;11.464;2022-12-20T01:03:27;28.30;;;18.52;;
611;SDS011;293;53.888;11.464;2022-12-20T01:05:55;21.60;;;15.63;;
611;SDS011;293;53.888;11.464;2022-12-20T01:08:24;25.52;;;18.35;;
611;SDS011;293;53.888;11.464;2022-12-20T01:10:58;27.60;;;19.05;;
611;SDS011;293;53.888;11.464;2022-12-20T01:13:25;22.90;;;16.65;;
611;SDS011;293;53.888;11.464;2022-12-20T01:15:54;32.63;;;19.95;;
611;SDS011;293;53.888;11.464;2022-12-20T01:18:21;28.30;;;18.65;;
611;SDS011;293;53.888;11.464;2022-12-20T01:20:48;26.48;;;18.98;;
611;SDS011;293;53.888;11.464;2022-12-20T01:23:15;24.65;;;18.13;;
611;SDS011;293;53.888;11.464;2022-12-20T01:25:42;26.45;;;18.50;;
611;SDS011;293;53.888;11.464;2022-12-20T01:28:09;26.13;;;17.85;;
611;SDS011;293;53.888;11.464;2022-12-20T01:30:38;23.02;;;17.15;;
611;SDS011;293;53.888;11.464;2022-12-20T01:33:07;31.58;;;19.48;;
611;SDS011;293;53.888;11.464;2022-12-20T01:35:33;27.73;;;17.85;;
611;SDS011;293;53.888;11.464;2022-12-20T01:38:00;26.38;;;17.25;;
611;SDS011;293;53.888;11.464;2022-12-20T01:40:27;29.13;;;20.27;;
611;SDS011;293;53.888;11.464;2022-12-20T01:42:54;29.20;;;19.60;;
611;SDS011;293;53.888;11.464;2022-12-20T01:45:22;26.70;;;17.48;;
611;SDS011;293;53.888;11.464;2022-12-20T01:47:53;22.60;;;15.25;;
611;SDS011;293;53.888;11.464;2022-12-20T01:50:22;22.20;;;17.67;;
611;SDS011;293;53.888;11.464;2022-12-20T01:52:50;24.17;;;17.20;;
611;SDS011;293;53.888;11.464;2022-12-20T01:55:19;27.25;;;17.33;;
611;SDS011;293;53.888;11.464;2022-12-20T01:57:50;25.17;;;17.17;;
611;SDS011;293;53.888;11.464;2022-12-20T02:00:20;27.92;;;16.23;;
611;SDS011;293;53.888;11.464;2022-12-20T02:02:48;27.30;;;18.00;;
611;SDS011;293;53.888;11.464;2022-12-20T02:05:16;23.98;;;17.67;;
611;SDS011;293;53.888;11.464;2022-12-20T02:07:49;32.78;;;18.17;;
611;SDS011;293;53.888;11.464;2022-12-20T02:10:20;33.15;;;19.27;;
611;SDS011;293;53.888;11.464;2022-12-20T02:12:49;26.95;;;18.17;;
611;SDS011;293;53.888;11.464;2022-12-20T02:15:31;26.08;;;17.90;;
611;SDS011;293;53.888;11.464;2022-12-20T02:18:09;26.33;;;18.75;;
611;SDS011;293;53.888;11.464;2022-12-20T02:20:53;26.08;;;18.42;;
611;SDS011;293;53.888;11.464;2022-12-20T02:23:41;25.33;;;16.63;;
611;SDS011;293;53.888;11.464;2022-12-20T02:26:41;26.80;;;19.50;;
611;SDS011;293;53.888;11.464;2022-12-20T02:29:27;18.83;;;16.00;;
611;SDS011;293;53.888;11.464;2022-12-20T02:32:03;26.45;;;16.95;;
611;SDS011;293;53.888;11.464;2022-12-20T02:34:37;19.23;;;16.35;;
611;SDS011;293;53.888;11.464;2022-12-20T02:37:06;30.08;;;18.63;;
611;SDS011;293;53.888;11.464;2022-12-20T02:39:34;23.15;;;16.45;;
611;SDS011;293;53.888;11.464;2022-12-20T02:42:04;27.27;;;17.70;;
611;SDS011;293;53.888;11.464;2022-12-20T02:44:33;21.95;;;17.05;;
611;SDS011;293;53.888;11.464;2022-12-20T02:47:22;21.77;;;16.08;;
611;SDS011;293;53.888;11.464;2022-12-20T02:49:52;24.60;;;15.90;;
611;SDS011;293;53.888;11.464;2022-12-20T02:52:21;20.70;;;16.00;;
611;SDS011;293;53.888;11.464;2022-12-20T02:54:51;21.23;;;15.30;;
611;SDS011;293;53.888;11.464;2022-12-20T02:57:20;24.95;;;16.48;;
611;SDS011;293;53.888;11.464;2022-12-20T02:59:54;21.50;;;15.77;;
611;SDS011;293;53.888;11.464;2022-12-20T03:02:27;29.60;;;17.70;;
611;SDS011;293;53.888;11.464;2022-12-20T03:05:16;22.20;;;15.07;;
611;SDS011;293;53.888;11.464;2022-12-20T03:07:45;23.33;;;17.27;;
611;SDS011;293;53.888;11.464;2022-12-20T03:10:12;25.33;;;18.38;;
611;SDS011;293;53.888;11.464;2022-12-20T03:12:39;25.98;;;17.40;;
611;SDS011;293;53.888;11.464;2022-12-20T03:15:06;23.08;;;16.45;;
611;SDS011;293;53.888;11.464;2022-12-20T03:17:34;22.95;;;17.85;;
611;SDS011;293;53.888;11.464;2022-12-20T03:20:01;22.63;;;15.43;;
611;SDS011;293;53.888;11.464;2022-12-20T03:22:30;26.98;;;17.17;;
611;SDS011;293;53.888;11.464;2022-12-20T03:24:57;23.38;;;16.88;;
611;SDS011;293;53.888;11.464;2022-12-20T03:27:24;28.13;;;17.95;;
611;SDS011;293;53.888;11.464;2022-12-20T03:29:52;26.90;;;16.98;;
611;SDS011;293;53.888;11.464;2022-12-20T03:32:18;21.98;;;17.00;;
611;SDS011;293;53.888;11.464;2022-12-20T03:34:47;24.63;;;15.75;;
611;SDS011;293;53.888;11.464;2022-12-20T03:37:14;25.23;;;17.02;;
611;SDS011;293;53.888;11.464;2022-12-20T03:39:41;22.35;;;15.77;;
611;SDS011;293;53.888;11.464;2022-12-20T03:42:08;19.65;;;14.52;;
611;SDS011;293;53.888;11.464;2022-12-20T03:44:35;23.85;;;16.85;;
611;SDS011;293;53.888;11.464;2022-12-20T03:47:02;22.23;;;15.43;;
611;SDS011;293;53.888;11.464;2022-12-20T03:49:29;19.10;;;15.27;;
611;SDS011;293;53.888;11.464;2022-12-20T03:51:57;20.50;;;14.90;;
611;SDS011;293;53.888;11.464;2022-12-20T03:54:24;18.60;;;15.30;;
611;SDS011;293;53.888;11.464;2022-12-20T03:56:51;19.77;;;15.07;;
611;SDS011;293;53.888;11.464;2022-12-20T03:59:18;19.17;;;13.98;;
611;SDS011;293;53.888;11.464;2022-12-20T04:01:45;20.10;;;14.80;;
611;SDS011;293;53.888;11.464;2022-12-20T04:04:12;21.40;;;16.57;;
611;SDS011;293;53.888;11.464;2022-12-20T04:06:40;21.47;;;16.43;;
611;SDS011;293;53.888;11.464;2022-12-20T04:09:08;28.05;;;18.60;;
611;SDS011;293;53.888;11.464;2022-12-20T04:11:35;27.37;;;17.20;;
611;SDS011;293;53.888;11.464;2022-12-20T04:14:03;23.30;;;17.20;;
611;SDS011;293;53.888;11.464;2022-12-20T04:16:30;16.90;;;13.37;;
611;SDS011;293;53.888;11.464;2022-12-20T04:18:58;24.75;;;15.73;;
611;SDS011;293;53.888;11.464;2022-12-20T04:21:25;20.58;;;14.52;;
611;SDS011;293;53.888;11.464;2022-12-20T04:23:53;28.75;;;17.77;;
611;SDS011;293;53.888;11.464;2022-12-20T04:26:21;19.67;;;14.68;;
611;SDS011;293;53.888;11.464;2022-12-20T04:28:48;23.05;;;18.15;;
611;SDS011;293;53.888;11.464;2022-12-20T04:31:15;22.40;;;15.93;;
611;SDS011;293;53.888;11.464;2022-12-20T04:33:42;20.42;;;15.50;;
611;SDS011;293;53.888;11.464;2022-12-20T04:36:10;19.97;;;14.87;;
611;SDS011;293;53.888;11.464;2022-12-20T04:38:37;21.80;;;16.15;;
611;SDS011;293;53.888;11.464;2022-12-20T04:41:04;21.83;;;17.13;;
611;SDS011;293;53.888;11.464;2022-12-20T04:43:32;20.90;;;17.60;;
611;SDS011;293;53.888;11.464;2022-12-20T04:45:59;25.52;;;16.80;;
611;SDS011;293;53.888;11.464;2022-12-20T04:48:27;30.88;;;16.42;;
611;SDS011;293;53.888;11.464;2022-12-20T04:50:54;22.92;;;16.85;;
611;SDS011;293;53.888;11.464;2022-12-20T04:53:21;21.55;;;15.93;;
611;SDS011;293;53.888;11.464;2022-12-20T04:56:06;22.80;;;16.13;;
611;SDS011;293;53.888;11.464;2022-12-20T04:58:35;24.37;;;16.03;;
611;SDS011;293;53.888;11.464;2022-12-20T05:01:02;25.75;;;18.50;;
611;SDS011;293;53.888;11.464;2022-12-20T05:03:28;23.55;;;17.13;;
611;SDS011;293;53.888;11.464;2022-12-20T05:05:55;20.90;;;16.57;;
611;SDS011;293;53.888;11.464;2022-12-20T05:08:23;21.23;;;16.00;;
611;SDS011;293;53.888;11.464;2022-12-20T05:10:50;22.47;;;18.50;;
611;SDS011;293;53.888;11.464;2022-12-20T05:13:17;22.17;;;16.80;;
611;SDS011;293;53.888;11.464;2022-12-20T05:15:45;25.07;;;19.23;;
611;SDS011;293;53.888;11.464;2022-12-20T05:18:16;20.70;;;16.67;;
611;SDS011;293;53.888;11.464;2022-12-20T05:20:43;22.42;;;14.73;;
611;SDS011;293;53.888;11.464;2022-12-20T05:23:10;21.20;;;15.77;;
611;SDS011;293;53.888;11.464;2022-12-20T05:25:55;21.83;;;16.77;;
611;SDS011;293;53.888;11.464;2022-12-20T05:28:39;14.95;;;13.32;;
611;SDS011;293;53.888;11.464;2022-12-20T05:31:07;19.85;;;14.25;;
611;SDS011;293;53.888;11.464;2022-12-20T05:33:34;22.83;;;17.55;;
611;SDS011;293;53.888;11.464;2022-12-20T05:36:01;22.40;;;15.95;;
611;SDS011;293;53.888;11.464;2022-12-20T05:38:28;22.05;;;15.82;;
611;SDS011;293;53.888;11.464;2022-12-20T05:40:55;22.50;;;16.63;;
611;SDS011;293;53.888;11.464;2022-12-20T05:43:22;24.40;;;17.33;;
611;SDS011;293;53.888;11.464;2022-12-20T05:45:50;22.63;;;16.60;;
611;SDS011;293;53.888;11.464;2022-12-20T05:48:19;20.50;;;15.40;;
611;SDS011;293;53.888;11.464;2022-12-20T05:50:46;20.40;;;15.10;;
611;SDS011;293;53.888;11.464;2022-12-20T05:53:14;22.92;;;16.27;;
611;SDS011;293;53.888;11.464;2022-12-20T05:55:42;23.33;;;16.13;;
611;SDS011;293;53.888;11.464;2022-12-20T05:58:10;22.40;;;17.50;;
611;SDS011;293;53.888;11.464;2022-12-20T06:00:38;19.57;;;15.13;;
611;SDS011;293;53.888;11.464;2022-12-20T06:03:06;19.77;;;15.65;;
611;SDS011;293;53.888;11.464;2022-12-20T06:05:34;23.23;;;16.47;;
611;SDS011;293;53.888;11.464;2022-12-20T06:10:32;23.70;;;16.97;;
611;SDS011;293;53.888;11.464;2022-12-20T06:13:00;23.10;;;15.07;;
611;SDS011;293;53.888;11.464;2022-12-20T06:15:27;20.57;;;15.30;;
611;SDS011;293;53.888;11.464;2022-12-20T06:17:54;18.65;;;14.40;;
611;SDS011;293;53.888;11.464;2022-12-20T06:20:21;24.70;;;16.63;;
611;SDS011;293;53.888;11.464;2022-12-20T06:22:49;18.43;;;14.67;;
611;SDS011;293;53.888;11.464;2022-12-20T06:25:16;19.77;;;14.33;;
611;SDS011;293;53.888;11.464;2022-12-20T06:27:43;25.90;;;15.67;;
611;SDS011;293;53.888;11.464;2022-12-20T06:30:10;24.07;;;16.77;;
611;SDS011;293;53.888;11.464;2022-12-20T06:32:38;20.70;;;16.07;;
611;SDS011;293;53.888;11.464;2022-12-20T06:35:05;22.20;;;15.82;;
611;SDS011;293;53.888;11.464;2022-12-20T06:37:32;25.23;;;17.57;;
611;SDS011;293;53.888;11.464;2022-12-20T06:40:02;21.37;;;16.60;;
611;SDS011;293;53.888;11.464;2022-12-20T06:42:29;24.70;;;17.40;;
611;SDS011;293;53.888;11.464;2022-12-20T06:44:56;22.25;;;17.27;;
611;SDS011;293;53.888;11.464;2022-12-20T06:47:23;28.97;;;18.33;;
611;SDS011;293;53.888;11.464;2022-12-20T06:49:50;25.93;;;17.67;;
611;SDS011;293;53.888;11.464;2022-12-20T06:52:17;25.80;;;18.03;;
611;SDS011;293;53.888;11.464;2022-12-20T06:54:43;21.50;;;16.20;;
611;SDS011;293;53.888;11.464;2022-12-20T06:57:12;25.80;;;18.90;;
611;SDS011;293;53.888;11.464;2022-12-20T06:59:39;25.27;;;18.20;;
611;SDS011;293;53.888;11.464;2022-12-20T07:02:06;22.67;;;18.00;;
611;SDS011;293;53.888;11.464;2022-12-20T07:04:34;21.67;;;16.10;;
611;SDS011;293;53.888;11.464;2022-12-20T07:07:01;18.90;;;15.27;;
611;SDS011;293;53.888;11.464;2022-12-20T07:09:28;24.23;;;18.67;;
611;SDS011;293;53.888;11.464;2022-12-20T07:11:55;24.98;;;17.15;;
611;SDS011;293;53.888;11.464;2022-12-20T07:14:24;18.63;;;16.33;;
611;SDS011;293;53.888;11.464;2022-12-20T07:16:51;23.63;;;18.27;;
611;SDS011;293;53.888;11.464;2022-12-20T07:19:18;25.60;;;19.10;;
611;SDS011;293;53.888;11.464;2022-12-20T07:21:46;29.27;;;19.50;;
611;SDS011;293;53.888;11.464;2022-12-20T07:24:13;26.00;;;18.90;;
611;SDS011;293;53.888;11.464;2022-12-20T07:26:40;24.70;;;18.50;;
611;SDS011;293;53.888;11.464;2022-12-20T07:29:09;29.70;;;19.33;;
611;SDS011;293;53.888;11.464;2022-12-20T07:31:37;26.10;;;19.40;;
611;SDS011;293;53.888;11.464;2022-12-20T07:34:04;26.60;;;18.93;;
611;SDS011;293;53.888;11.464;2022-12-20T07:36:31;29.67;;;18.50;;
611;SDS011;293;53.888;11.464;2022-12-20T07:38:57;102.60;;;61.63;;
611;SDS011;293;53.888;11.464;2022-12-20T07:41:25;39.30;;;27.30;;
611;SDS011;293;53.888;11.464;2022-12-20T07:43:52;26.47;;;18.43;;
611;SDS011;293;53.888;11.464;2022-12-20T07:46:19;25.40;;;20.13;;
611;SDS011;293;53.888;11.464;2022-12-20T07:48:47;25.90;;;16.90;;
611;SDS011;293;53.888;11.464;2022-12-20T07:51:16;23.70;;;18.80;;
611;SDS011;293;53.888;11.464;2022-12-20T07:53:47;24.30;;;16.40;;
611;SDS011;293;53.888;11.464;2022-12-20T07:56:18;26.43;;;17.90;;
611;SDS011;293;53.888;11.464;2022-12-20T07:58:46;24.80;;;16.93;;
611;SDS011;293;53.888;11.464;2022-12-20T08:01:17;28.57;;;18.67;;
611;SDS011;293;53.888;11.464;2022-12-20T08:03:46;25.17;;;20.33;;
611;SDS011;293;53.888;11.464;2022-12-20T08:06:18;24.27;;;18.50;;
611;SDS011;293;53.888;11.464;2022-12-20T08:08:45;29.42;;;19.30;;
611;SDS011;293;53.888;11.464;2022-12-20T08:11:15;24.10;;;16.37;;
611;SDS011;293;53.888;11.464;2022-12-20T08:13:43;23.33;;;16.80;;
611;SDS011;293;53.888;11.464;2022-12-20T08:16:11;23.47;;;16.97;;
611;SDS011;293;53.888;11.464;2022-12-20T08:18:37;23.77;;;16.77;;
611;SDS011;293;53.888;11.464;2022-12-20T08:21:06;23.50;;;19.10;;
611;SDS011;293;53.888;11.464;2022-12-20T08:23:34;56.13;;;41.70;;
611;SDS011;293;53.888;11.464;2022-12-20T08:26:01;36.23;;;25.20;;
611;SDS011;293;53.888;11.464;2022-12-20T08:28:28;23.27;;;16.80;;
611;SDS011;293;53.888;11.464;2022-12-20T08:30:59;23.67;;;18.03;;
611;SDS011;293;53.888;11.464;2022-12-20T08:33:26;21.57;;;17.30;;
611;SDS011;293;53.888;11.464;2022-12-20T08:35:56;25.67;;;17.37;;
611;SDS011;293;53.888;11.464;2022-12-20T08:38:25;23.73;;;17.77;;
611;SDS011;293;53.888;11.464;2022-12-20T08:40:53;26.40;;;18.03;;
611;SDS011;293;53.888;11.464;2022-12-20T08:43:20;24.47;;;17.50;;
611;SDS011;293;53.888;11.464;2022-12-20T08:45:50;19.90;;;15.17;;
611;SDS011;293;53.888;11.464;2022-12-20T08:48:20;26.40;;;17.87;;
611;SDS011;293;53.888;11.464;2022-12-20T08:50:47;25.40;;;17.57;;
611;SDS011;293;53.888;11.464;2022-12-20T08:53:19;26.30;;;18.80;;
611;SDS011;293;53.888;11.464;2022-12-20T08:55:48;25.70;;;19.67;;
611;SDS011;293;53.888;11.464;2022-12-20T08:58:15;27.90;;;18.00;;
611;SDS011;293;53.888;11.464;2022-12-20T09:00:42;32.50;;;18.90;;
611;SDS011;293;53.888;11.464;2022-12-20T09:03:09;29.70;;;20.97;;
611;SDS011;293;53.888;11.464;2022-12-20T09:05:41;26.23;;;18.73;;
611;SDS011;293;53.888;11.464;2022-12-20T09:08:09;25.13;;;19.40;;
611;SDS011;293;53.888;11.464;2022-12-20T09:10:36;19.63;;;17.00;;
611;SDS011;293;53.888;11.464;2022-12-20T09:13:04;24.77;;;16.80;;
611;SDS011;293;53.888;11.464;2022-12-20T09:15:32;21.43;;;17.30;;
611;SDS011;293;53.888;11.464;2022-12-20T09:17:59;27.43;;;18.60;;
611;SDS011;293;53.888;11.464;2022-12-20T09:20:26;22.80;;;17.40;;
611;SDS011;293;53.888;11.464;2022-12-20T09:22:54;25.23;;;16.87;;
611;SDS011;293;53.888;11.464;2022-12-20T09:25:21;23.87;;;17.57;;
611;SDS011;293;53.888;11.464;2022-12-20T09:27:48;24.07;;;17.60;;
611;SDS011;293;53.888;11.464;2022-12-20T09:30:16;37.00;;;29.20;;
611;SDS011;293;53.888;11.464;2022-12-20T09:32:43;22.30;;;17.40;;
611;SDS011;293;53.888;11.464;2022-12-20T09:35:10;24.13;;;15.90;;
611;SDS011;293;53.888;11.464;2022-12-20T09:37:37;24.40;;;18.77;;
611;SDS011;293;53.888;11.464;2022-12-20T09:40:06;21.30;;;14.63;;
611;SDS011;293;53.888;11.464;2022-12-20T09:42:37;21.97;;;17.23;;
611;SDS011;293;53.888;11.464;2022-12-20T09:45:05;23.00;;;18.17;;
611;SDS011;293;53.888;11.464;2022-12-20T09:47:36;24.73;;;16.80;;
611;SDS011;293;53.888;11.464;2022-12-20T09:50:03;27.73;;;18.87;;
611;SDS011;293;53.888;11.464;2022-12-20T09:52:35;21.80;;;16.83;;
611;SDS011;293;53.888;11.464;2022-12-20T09:55:17;21.20;;;16.57;;
611;SDS011;293;53.888;11.464;2022-12-20T09:57:56;23.10;;;16.57;;
611;SDS011;293;53.888;11.464;2022-12-20T10:00:34;19.80;;;15.17;;
611;SDS011;293;53.888;11.464;2022-12-20T10:03:03;17.93;;;13.90;;
611;SDS011;293;53.888;11.464;2022-12-20T10:05:32;23.67;;;19.13;;
611;SDS011;293;53.888;11.464;2022-12-20T10:08:06;22.57;;;16.53;;
611;SDS011;293;53.888;11.464;2022-12-20T10:10:52;22.37;;;16.40;;
611;SDS011;293;53.888;11.464;2022-12-20T10:13:31;23.33;;;17.20;;
611;SDS011;293;53.888;11.464;2022-12-20T10:16:06;19.40;;;15.67;;
611;SDS011;293;53.888;11.464;2022-12-20T10:18:49;21.10;;;15.40;;
611;SDS011;293;53.888;11.464;2022-12-20T10:21:25;16.10;;;14.10;;
611;SDS011;293;53.888;11.464;2022-12-20T10:23:59;19.53;;;15.00;;
611;SDS011;293;53.888;11.464;2022-12-20T10:26:28;19.30;;;15.33;;
611;SDS011;293;53.888;11.464;2022-12-20T10:28:55;19.93;;;16.03;;
611;SDS011;293;53.888;11.464;2022-12-20T10:31:22;20.00;;;15.57;;
611;SDS011;293;53.888;11.464;2022-12-20T10:33:51;15.97;;;13.33;;
611;SDS011;293;53.888;11.464;2022-12-20T10:36:19;18.57;;;15.57;;
611;SDS011;293;53.888;11.464;2022-12-20T10:38:48;19.60;;;14.20;;
611;SDS011;293;53.888;11.464;2022-12-20T10:41:17;20.70;;;15.30;;
611;SDS011;293;53.888;11.464;2022-12-20T10:43:46;18.57;;;13.67;;
611;SDS011;293;53.888;11.464;2022-12-20T10:46:16;16.77;;;14.50;;
611;SDS011;293;53.888;11.464;2022-12-20T10:48:44;19.07;;;15.17;;
611;SDS011;293;53.888;11.464;2022-12-20T10:51:15;16.30;;;14.33;;
611;SDS011;293;53.888;11.464;2022-12-20T10:53:50;16.80;;;13.50;;
611;SDS011;293;53.888;11.464;2022-12-20T10:56:20;18.73;;;14.33;;
611;SDS011;293;53.888;11.464;2022-12-20T10:58:52;16.43;;;13.53;;
611;SDS011;293;53.888;11.464;2022-12-20T11:01:21;14.57;;;13.07;;
611;SDS011;293;53.888;11.464;2022-12-20T11:03:53;16.10;;;14.40;;
611;SDS011;293;53.888;11.464;2022-12-20T11:06:23;29.33;;;24.53;;
611;SDS011;293;53.888;11.464;2022-12-20T11:08:53;16.43;;;14.17;;
611;SDS011;293;53.888;11.464;2022-12-20T11:11:37;14.63;;;12.47;;
611;SDS011;293;53.888;11.464;2022-12-20T11:14:11;13.30;;;11.37;;
611;SDS011;293;53.888;11.464;2022-12-20T11:16:40;13.50;;;11.80;;
611;SDS011;293;53.888;11.464;2022-12-20T11:19:12;14.90;;;12.37;;
611;SDS011;293;53.888;11.464;2022-12-20T11:21:59;14.37;;;12.83;;
611;SDS011;293;53.888;11.464;2022-12-20T11:24:34;13.33;;;11.93;;
611;SDS011;293;53.888;11.464;2022-12-20T11:27:15;12.77;;;10.30;;
611;SDS011;293;53.888;11.464;2022-12-20T11:29:56;14.23;;;11.63;;
611;SDS011;293;53.888;11.464;2022-12-20T11:32:37;16.30;;;13.03;;
611;SDS011;293;53.888;11.464;2022-12-20T11:35:18;14.80;;;13.40;;
611;SDS011;293;53.888;11.464;2022-12-20T11:37:53;17.00;;;13.60;;
611;SDS011;293;53.888;11.464;2022-12-20T11:40:32;13.63;;;11.30;;
611;SDS011;293;53.888;11.464;2022-12-20T11:43:06;16.30;;;12.67;;
611;SDS011;293;53.888;11.464;2022-12-20T11:45:59;14.03;;;12.57;;
611;SDS011;293;53.888;11.464;2022-12-20T11:48:40;12.07;;;10.87;;
611;SDS011;293;53.888;11.464;2022-12-20T11:51:21;12.80;;;11.60;;
611;SDS011;293;53.888;11.464;2022-12-20T11:53:51;12.80;;;11.10;;
611;SDS011;293;53.888;11.464;2022-12-20T11:56:23;13.03;;;11.73;;
611;SDS011;293;53.888;11.464;2022-12-20T11:58:56;13.73;;;10.70;;
611;SDS011;293;53.888;11.464;2022-12-20T12:01:28;12.93;;;11.63;;
611;SDS011;293;53.888;11.464;2022-12-20T12:04:02;14.97;;;11.90;;
611;SDS011;293;53.888;11.464;2022-12-20T12:06:35;15.23;;;11.90;;
611;SDS011;293;53.888;11.464;2022-12-20T12:09:07;13.87;;;11.63;;
611;SDS011;293;53.888;11.464;2022-12-20T12:11:41;17.13;;;11.67;;
611;SDS011;293;53.888;11.464;2022-12-20T12:14:14;13.50;;;10.80;;
611;SDS011;293;53.888;11.464;2022-12-20T12:16:46;13.80;;;11.07;;
611;SDS011;293;53.888;11.464;2022-12-20T12:19:19;15.70;;;11.93;;
611;SDS011;293;53.888;11.464;2022-12-20T12:21:49;11.57;;;10.50;;
611;SDS011;293;53.888;11.464;2022-12-20T12:24:24;13.13;;;11.50;;
611;SDS011;293;53.888;11.464;2022-12-20T12:26:54;12.73;;;10.13;;
611;SDS011;293;53.888;11.464;2022-12-20T12:29:24;17.30;;;11.73;;
611;SDS011;293;53.888;11.464;2022-12-20T12:31:54;13.80;;;11.43;;
611;SDS011;293;53.888;11.464;2022-12-20T12:34:29;21.17;;;12.33;;
611;SDS011;293;53.888;11.464;2022-12-20T12:37:14;13.03;;;11.73;;
611;SDS011;293;53.888;11.464;2022-12-20T12:39:59;14.03;;;11.53;;
611;SDS011;293;53.888;11.464;2022-12-20T12:45:49;13.20;;;11.80;;
611;SDS011;293;53.888;11.464;2022-12-20T12:48:18;11.60;;;10.10;;
611;SDS011;293;53.888;11.464;2022-12-20T12:50:51;12.30;;;10.47;;
611;SDS011;293;53.888;11.464;2022-12-20T12:53:20;11.63;;;10.27;;
611;SDS011;293;53.888;11.464;2022-12-20T12:55:56;15.03;;;11.70;;
611;SDS011;293;53.888;11.464;2022-12-20T12:58:30;14.27;;;10.67;;
611;SDS011;293;53.888;11.464;2022-12-20T13:00:58;15.33;;;10.60;;
611;SDS011;293;53.888;11.464;2022-12-20T13:03:34;12.73;;;10.33;;
611;SDS011;293;53.888;11.464;2022-12-20T13:09:36;18.47;;;12.37;;
611;SDS011;293;53.888;11.464;2022-12-20T13:18:31;10.50;;;9.23;;
611;SDS011;293;53.888;11.464;2022-12-20T13:30:01;12.50;;;10.63;;
611;SDS011;293;53.888;11.464;2022-12-20T13:35:53;11.33;;;10.13;;
611;SDS011;293;53.888;11.464;2022-12-20T13:38:52;11.83;;;9.73;;
611;SDS011;293;53.888;11.464;2022-12-20T13:44:23;16.97;;;10.70;;
611;SDS011;293;53.888;11.464;2022-12-20T13:47:05;12.10;;;10.80;;
611;SDS011;293;53.888;11.464;2022-12-20T13:49:38;13.17;;;9.87;;
611;SDS011;293;53.888;11.464;2022-12-20T13:52:19;14.47;;;10.40;;
611;SDS011;293;53.888;11.464;2022-12-20T13:54:51;12.17;;;10.23;;
611;SDS011;293;53.888;11.464;2022-12-20T13:57:23;11.87;;;9.80;;
611;SDS011;293;53.888;11.464;2022-12-20T13:59:54;11.07;;;9.83;;
611;SDS011;293;53.888;11.464;2022-12-20T14:02:23;11.97;;;10.57;;
611;SDS011;293;53.888;11.464;2022-12-20T14:04:56;12.00;;;10.57;;
611;SDS011;293;53.888;11.464;2022-12-20T14:07:27;15.93;;;11.33;;
611;SDS011;293;53.888;11.464;2022-12-20T14:09:56;11.40;;;10.20;;
611;SDS011;293;53.888;11.464;2022-12-20T14:12:25;12.73;;;11.43;;
611;SDS011;293;53.888;11.464;2022-12-20T14:14:55;12.90;;;10.83;;
611;SDS011;293;53.888;11.464;2022-12-20T14:17:23;12.03;;;10.83;;
611;SDS011;293;53.888;11.464;2022-12-20T14:20:01;10.80;;;9.70;;
611;SDS011;293;53.888;11.464;2022-12-20T14:22:31;10.20;;;8.77;;
611;SDS011;293;53.888;11.464;2022-12-20T14:25:00;11.53;;;9.80;;
611;SDS011;293;53.888;11.464;2022-12-20T14:27:32;12.97;;;11.60;;
611;SDS011;293;53.888;11.464;2022-12-20T14:30:03;11.67;;;9.50;;
611;SDS011;293;53.888;11.464;2022-12-20T14:32:31;27.97;;;23.40;;
611;SDS011;293;53.888;11.464;2022-12-20T14:34:58;16.07;;;12.17;;
611;SDS011;293;53.888;11.464;2022-12-20T14:37:26;10.47;;;9.27;;
611;SDS011;293;53.888;11.464;2022-12-20T14:39:58;13.67;;;10.17;;
611;SDS011;293;53.888;11.464;2022-12-20T14:42:31;13.97;;;10.17;;
611;SDS011;293;53.888;11.464;2022-12-20T14:45:03;12.90;;;11.60;;
611;SDS011;293;53.888;11.464;2022-12-20T14:47:32;13.23;;;10.53;;
611;SDS011;293;53.888;11.464;2022-12-20T14:50:00;13.00;;;10.63;;
611;SDS011;293;53.888;11.464;2022-12-20T14:52:32;11.27;;;9.17;;
611;SDS011;293;53.888;11.464;2022-12-20T14:55:04;13.23;;;10.00;;
611;SDS011;293;53.888;11.464;2022-12-20T14:57:37;16.73;;;10.20;;
611;SDS011;293;53.888;11.464;2022-12-20T15:00:11;11.53;;;10.10;;
611;SDS011;293;53.888;11.464;2022-12-20T15:02:41;15.43;;;10.20;;
611;SDS011;293;53.888;11.464;2022-12-20T15:08:10;12.63;;;11.00;;
611;SDS011;293;53.888;11.464;2022-12-20T15:10:39;11.70;;;10.07;;
611;SDS011;293;53.888;11.464;2022-12-20T15:13:11;11.83;;;9.90;;
611;SDS011;293;53.888;11.464;2022-12-20T15:15:39;11.80;;;9.50;;
611;SDS011;293;53.888;11.464;2022-12-20T15:18:09;11.50;;;10.10;;
611;SDS011;293;53.888;11.464;2022-12-20T15:20:37;12.80;;;11.20;;
611;SDS011;293;53.888;11.464;2022-12-20T15:23:07;13.40;;;11.30;;
611;SDS011;293;53.888;11.464;2022-12-20T15:25:43;16.93;;;10.30;;
611;SDS011;293;53.888;11.464;2022-12-20T15:28:15;12.30;;;11.00;;
611;SDS011;293;53.888;11.464;2022-12-20T15:30:44;14.80;;;9.40;;
611;SDS011;293;53.888;11.464;2022-12-20T15:33:13;12.30;;;11.00;;
611;SDS011;293;53.888;11.464;2022-12-20T15:35:42;12.73;;;11.40;;
611;SDS011;293;53.888;11.464;2022-12-20T15:38:12;15.73;;;10.70;;
611;SDS011;293;53.888;11.464;2022-12-20T15:40:41;11.60;;;10.37;;
611;SDS011;293;53.888;11.464;2022-12-20T15:43:14;12.50;;;10.30;;
611;SDS011;293;53.888;11.464;2022-12-20T15:45:43;14.03;;;10.37;;
611;SDS011;293;53.888;11.464;2022-12-20T15:48:13;11.43;;;10.30;;
611;SDS011;293;53.888;11.464;2022-12-20T15:50:42;10.00;;;9.07;;
611;SDS011;293;53.888;11.464;2022-12-20T15:53:15;10.30;;;8.57;;
611;SDS011;293;53.888;11.464;2022-12-20T15:55:47;18.17;;;10.03;;